sensor_id;sensor_type;location;lat;lon;timestamp;temperature;humidity
69189;DHT22;56302;52.322;5.926;2022-10-04T00:01:47;10.40;91.40
69189;DHT22;56302;52.322;5.926;2022-10-04T00:07:30;10.40;92.10
69189;DHT22;56302;52.322;5.926;2022-10-04T00:09:44;10.40;92.00
69189;DHT22;56302;52.322;5.926;2022-10-04T00:14:46;10.40;92.90
69189;DHT22;56302;52.322;5.926;2022-10-04T00:17:13;10.30;93.10
69189;DHT22;56302;52.322;5.926;2022-10-04T00:19:47;10.30;93.10
69189;DHT22;56302;52.322;5.926;2022-10-04T00:22:17;10.30;93.60
69189;DHT22;56302;52.322;5.926;2022-10-04T00:25:16;10.30;94.00
69189;DHT22;56302;52.322;5.926;2022-10-04T00:31:09;10.30;94.10
69189;DHT22;56302;52.322;5.926;2022-10-04T00:33:38;10.30;93.90
69189;DHT22;56302;52.322;5.926;2022-10-04T00:41:47;10.40;93.40
69189;DHT22;56302;52.322;5.926;2022-10-04T00:44:31;10.40;93.40
69189;DHT22;56302;52.322;5.926;2022-10-04T00:47:00;10.50;93.30
69189;DHT22;56302;52.322;5.926;2022-10-04T00:49:34;10.50;93.50
69189;DHT22;56302;52.322;5.926;2022-10-04T00:52:28;10.50;93.50
69189;DHT22;56302;52.322;5.926;2022-10-04T00:54:58;10.50;93.40
69189;DHT22;56302;52.322;5.926;2022-10-04T00:57:38;10.50;93.40
69189;DHT22;56302;52.322;5.926;2022-10-04T01:00:11;10.50;93.40
69189;DHT22;56302;52.322;5.926;2022-10-04T01:02:50;10.50;93.20
69189;DHT22;56302;52.322;5.926;2022-10-04T01:05:38;10.50;93.50
69189;DHT22;56302;52.322;5.926;2022-10-04T01:08:10;10.50;93.60
69189;DHT22;56302;52.322;5.926;2022-10-04T01:16:21;10.50;93.20
69189;DHT22;56302;52.322;5.926;2022-10-04T01:18:47;10.50;93.60
69189;DHT22;56302;52.322;5.926;2022-10-04T01:28:59;10.50;93.60
69189;DHT22;56302;52.322;5.926;2022-10-04T01:31:31;10.50;93.50
69189;DHT22;56302;52.322;5.926;2022-10-04T01:33:59;10.50;93.50
69189;DHT22;56302;52.322;5.926;2022-10-04T01:36:25;10.50;93.20
69189;DHT22;56302;52.322;5.926;2022-10-04T01:38:52;10.50;93.10
69189;DHT22;56302;52.322;5.926;2022-10-04T01:41:23;10.50;93.40
69189;DHT22;56302;52.322;5.926;2022-10-04T01:43:54;10.50;93.50
69189;DHT22;56302;52.322;5.926;2022-10-04T01:46:26;10.40;93.50
69189;DHT22;56302;52.322;5.926;2022-10-04T01:48:54;10.40;93.50
69189;DHT22;56302;52.322;5.926;2022-10-04T01:51:33;10.40;93.50
69189;DHT22;56302;52.322;5.926;2022-10-04T01:54:16;10.30;93.50
69189;DHT22;56302;52.322;5.926;2022-10-04T01:56:50;10.40;93.70
69189;DHT22;56302;52.322;5.926;2022-10-04T01:59:29;10.40;93.70
69189;DHT22;56302;52.322;5.926;2022-10-04T02:02:05;10.40;93.70
69189;DHT22;56302;52.322;5.926;2022-10-04T02:04:36;10.30;93.60
69189;DHT22;56302;52.322;5.926;2022-10-04T02:07:03;10.30;93.60
69189;DHT22;56302;52.322;5.926;2022-10-04T02:09:38;10.30;93.70
69189;DHT22;56302;52.322;5.926;2022-10-04T02:12:05;10.30;93.80
69189;DHT22;56302;52.322;5.926;2022-10-04T02:14:32;10.30;93.90
69189;DHT22;56302;52.322;5.926;2022-10-04T02:17:00;10.30;93.70
69189;DHT22;56302;52.322;5.926;2022-10-04T02:19:36;10.20;93.80
69189;DHT22;56302;52.322;5.926;2022-10-04T02:22:04;10.20;93.70
69189;DHT22;56302;52.322;5.926;2022-10-04T02:24:40;10.20;93.50
69189;DHT22;56302;52.322;5.926;2022-10-04T02:27:06;10.20;93.30
69189;DHT22;56302;52.322;5.926;2022-10-04T02:29:32;10.20;93.10
69189;DHT22;56302;52.322;5.926;2022-10-04T02:31:58;10.20;93.00
69189;DHT22;56302;52.322;5.926;2022-10-04T02:34:43;10.20;93.00
69189;DHT22;56302;52.322;5.926;2022-10-04T02:37:10;10.10;93.30
69189;DHT22;56302;52.322;5.926;2022-10-04T02:39:51;10.00;93.50
69189;DHT22;56302;52.322;5.926;2022-10-04T02:42:33;10.00;93.40
69189;DHT22;56302;52.322;5.926;2022-10-04T02:47:50;9.90;93.50
69189;DHT22;56302;52.322;5.926;2022-10-04T02:50:23;9.90;93.60
69189;DHT22;56302;52.322;5.926;2022-10-04T02:52:59;9.80;93.60
69189;DHT22;56302;52.322;5.926;2022-10-04T02:55:28;9.80;93.30
69189;DHT22;56302;52.322;5.926;2022-10-04T02:57:55;9.80;93.20
69189;DHT22;56302;52.322;5.926;2022-10-04T03:00:30;9.80;93.30
69189;DHT22;56302;52.322;5.926;2022-10-04T03:08:29;9.80;93.20
69189;DHT22;56302;52.322;5.926;2022-10-04T03:10:57;9.70;93.50
69189;DHT22;56302;52.322;5.926;2022-10-04T03:13:24;9.60;93.80
69189;DHT22;56302;52.322;5.926;2022-10-04T03:15:51;9.60;93.80
69189;DHT22;56302;52.322;5.926;2022-10-04T03:18:17;9.60;93.80
69189;DHT22;56302;52.322;5.926;2022-10-04T03:20:44;9.50;93.70
69189;DHT22;56302;52.322;5.926;2022-10-04T03:23:11;9.40;94.30
69189;DHT22;56302;52.322;5.926;2022-10-04T03:28:10;9.40;94.20
69189;DHT22;56302;52.322;5.926;2022-10-04T03:30:35;9.40;94.10
69189;DHT22;56302;52.322;5.926;2022-10-04T03:33:01;9.40;94.10
69189;DHT22;56302;52.322;5.926;2022-10-04T03:35:36;9.30;94.20
69189;DHT22;56302;52.322;5.926;2022-10-04T03:38:08;9.30;93.90
69189;DHT22;56302;52.322;5.926;2022-10-04T03:40:37;9.30;93.70
69189;DHT22;56302;52.322;5.926;2022-10-04T03:43:04;9.30;93.70
69189;DHT22;56302;52.322;5.926;2022-10-04T03:45:31;9.30;93.70
69189;DHT22;56302;52.322;5.926;2022-10-04T03:48:03;9.20;93.50
69189;DHT22;56302;52.322;5.926;2022-10-04T03:50:33;9.20;93.70
69189;DHT22;56302;52.322;5.926;2022-10-04T03:53:02;9.20;93.70
69189;DHT22;56302;52.322;5.926;2022-10-04T03:55:34;9.10;94.00
69189;DHT22;56302;52.322;5.926;2022-10-04T03:58:02;9.10;93.80
69189;DHT22;56302;52.322;5.926;2022-10-04T04:00:29;9.00;94.20
69189;DHT22;56302;52.322;5.926;2022-10-04T04:02:58;9.00;93.70
69189;DHT22;56302;52.322;5.926;2022-10-04T04:05:31;8.90;93.60
69189;DHT22;56302;52.322;5.926;2022-10-04T04:08:11;8.90;93.50
69189;DHT22;56302;52.322;5.926;2022-10-04T04:10:45;8.80;93.70
69189;DHT22;56302;52.322;5.926;2022-10-04T04:15:49;8.80;93.40
69189;DHT22;56302;52.322;5.926;2022-10-04T04:18:19;8.80;93.20
69189;DHT22;56302;52.322;5.926;2022-10-04T04:20:46;8.80;93.20
69189;DHT22;56302;52.322;5.926;2022-10-04T04:23:25;8.70;93.30
69189;DHT22;56302;52.322;5.926;2022-10-04T04:25:55;8.70;93.30
69189;DHT22;56302;52.322;5.926;2022-10-04T04:28:33;8.60;93.20
69189;DHT22;56302;52.322;5.926;2022-10-04T04:31:05;8.60;93.10
69189;DHT22;56302;52.322;5.926;2022-10-04T04:33:42;8.60;93.10
69189;DHT22;56302;52.322;5.926;2022-10-04T04:36:11;8.50;93.10
69189;DHT22;56302;52.322;5.926;2022-10-04T04:38:36;8.40;93.60
69189;DHT22;56302;52.322;5.926;2022-10-04T04:41:23;8.30;94.40
69189;DHT22;56302;52.322;5.926;2022-10-04T04:43:50;8.30;94.30
69189;DHT22;56302;52.322;5.926;2022-10-04T04:46:15;8.30;94.10
69189;DHT22;56302;52.322;5.926;2022-10-04T04:48:45;8.30;93.90
69189;DHT22;56302;52.322;5.926;2022-10-04T04:51:21;8.20;93.90
69189;DHT22;56302;52.322;5.926;2022-10-04T04:53:49;8.20;93.90
69189;DHT22;56302;52.322;5.926;2022-10-04T04:56:22;8.10;94.30
69189;DHT22;56302;52.322;5.926;2022-10-04T04:58:51;8.10;94.50
69189;DHT22;56302;52.322;5.926;2022-10-04T05:06:37;8.00;95.60
69189;DHT22;56302;52.322;5.926;2022-10-04T05:09:04;8.10;95.10
69189;DHT22;56302;52.322;5.926;2022-10-04T05:11:39;8.20;94.00
69189;DHT22;56302;52.322;5.926;2022-10-04T05:14:08;8.20;93.80
69189;DHT22;56302;52.322;5.926;2022-10-04T05:16:53;8.10;94.80
69189;DHT22;56302;52.322;5.926;2022-10-04T05:19:25;7.90;95.90
69189;DHT22;56302;52.322;5.926;2022-10-04T05:21:54;8.00;95.90
69189;DHT22;56302;52.322;5.926;2022-10-04T05:24:25;8.00;96.00
69189;DHT22;56302;52.322;5.926;2022-10-04T05:26:55;8.10;95.60
69189;DHT22;56302;52.322;5.926;2022-10-04T05:29:25;8.10;95.10
69189;DHT22;56302;52.322;5.926;2022-10-04T05:32:14;8.10;95.20
69189;DHT22;56302;52.322;5.926;2022-10-04T05:34:48;8.00;95.00
69189;DHT22;56302;52.322;5.926;2022-10-04T05:37:39;8.10;94.90
69189;DHT22;56302;52.322;5.926;2022-10-04T05:45:15;7.80;95.30
69189;DHT22;56302;52.322;5.926;2022-10-04T05:47:42;7.80;95.60
69189;DHT22;56302;52.322;5.926;2022-10-04T05:50:18;7.80;95.60
69189;DHT22;56302;52.322;5.926;2022-10-04T05:52:46;7.90;95.20
69189;DHT22;56302;52.322;5.926;2022-10-04T05:55:23;7.90;94.80
69189;DHT22;56302;52.322;5.926;2022-10-04T06:00:19;7.90;94.50
69189;DHT22;56302;52.322;5.926;2022-10-04T06:03:42;7.90;94.50
69189;DHT22;56302;52.322;5.926;2022-10-04T06:05:53;7.90;94.40
69189;DHT22;56302;52.322;5.926;2022-10-04T06:14:21;8.00;93.30
69189;DHT22;56302;52.322;5.926;2022-10-04T06:17:03;8.00;93.50
69189;DHT22;56302;52.322;5.926;2022-10-04T06:20:06;8.00;94.00
69189;DHT22;56302;52.322;5.926;2022-10-04T06:22:42;8.00;93.80
69189;DHT22;56302;52.322;5.926;2022-10-04T06:25:16;8.00;93.90
69189;DHT22;56302;52.322;5.926;2022-10-04T06:27:56;8.00;94.30
69189;DHT22;56302;52.322;5.926;2022-10-04T06:30:23;8.00;94.80
69189;DHT22;56302;52.322;5.926;2022-10-04T06:35:59;7.90;95.30
69189;DHT22;56302;52.322;5.926;2022-10-04T06:47:03;7.90;95.50
69189;DHT22;56302;52.322;5.926;2022-10-04T06:49:55;7.80;95.90
69189;DHT22;56302;52.322;5.926;2022-10-04T07:01:31;8.00;95.90
69189;DHT22;56302;52.322;5.926;2022-10-04T07:06:46;8.30;95.90
69189;DHT22;56302;52.322;5.926;2022-10-04T07:09:19;8.50;95.30
69189;DHT22;56302;52.322;5.926;2022-10-04T07:11:52;8.60;95.00
69189;DHT22;56302;52.322;5.926;2022-10-04T07:14:30;8.70;95.10
69189;DHT22;56302;52.322;5.926;2022-10-04T07:17:03;8.90;95.20
69189;DHT22;56302;52.322;5.926;2022-10-04T07:19:44;9.00;95.70
69189;DHT22;56302;52.322;5.926;2022-10-04T07:22:29;9.20;95.90
69189;DHT22;56302;52.322;5.926;2022-10-04T07:25:20;9.50;96.20
69189;DHT22;56302;52.322;5.926;2022-10-04T07:27:52;9.80;96.40
69189;DHT22;56302;52.322;5.926;2022-10-04T07:30:42;10.20;96.90
69189;DHT22;56302;52.322;5.926;2022-10-04T07:33:14;10.40;95.90
69189;DHT22;56302;52.322;5.926;2022-10-04T07:35:47;10.40;95.30
69189;DHT22;56302;52.322;5.926;2022-10-04T07:38:37;10.40;95.70
69189;DHT22;56302;52.322;5.926;2022-10-04T07:41:11;10.50;95.60
69189;DHT22;56302;52.322;5.926;2022-10-04T07:43:51;10.50;95.70
69189;DHT22;56302;52.322;5.926;2022-10-04T07:46:42;10.50;95.40
69189;DHT22;56302;52.322;5.926;2022-10-04T07:49:16;10.50;95.30
69189;DHT22;56302;52.322;5.926;2022-10-04T07:52:01;10.50;95.40
69189;DHT22;56302;52.322;5.926;2022-10-04T07:54:46;10.50;95.00
69189;DHT22;56302;52.322;5.926;2022-10-04T08:00:10;10.60;94.90
69189;DHT22;56302;52.322;5.926;2022-10-04T08:02:50;11.10;94.90
69189;DHT22;56302;52.322;5.926;2022-10-04T08:05:21;11.60;94.20
69189;DHT22;56302;52.322;5.926;2022-10-04T08:08:16;12.10;93.70
69189;DHT22;56302;52.322;5.926;2022-10-04T08:10:54;12.50;92.10
69189;DHT22;56302;52.322;5.926;2022-10-04T08:16:45;13.40;90.00
69189;DHT22;56302;52.322;5.926;2022-10-04T08:19:36;13.80;89.30
69189;DHT22;56302;52.322;5.926;2022-10-04T08:25:15;14.40;87.00
69189;DHT22;56302;52.322;5.926;2022-10-04T08:28:01;14.50;84.50
69189;DHT22;56302;52.322;5.926;2022-10-04T08:31:02;14.50;85.30
69189;DHT22;56302;52.322;5.926;2022-10-04T08:39:05;14.10;85.00
69189;DHT22;56302;52.322;5.926;2022-10-04T08:51:05;14.30;83.30
69189;DHT22;56302;52.322;5.926;2022-10-04T08:54:41;14.40;83.10
69189;DHT22;56302;52.322;5.926;2022-10-04T08:56:50;14.20;82.50
69189;DHT22;56302;52.322;5.926;2022-10-04T09:02:34;14.20;83.60
69189;DHT22;56302;52.322;5.926;2022-10-04T09:16:23;14.70;80.10
69189;DHT22;56302;52.322;5.926;2022-10-04T09:19:28;14.60;80.20
69189;DHT22;56302;52.322;5.926;2022-10-04T09:22:18;14.60;80.20
69189;DHT22;56302;52.322;5.926;2022-10-04T09:27:38;14.60;81.20
69189;DHT22;56302;52.322;5.926;2022-10-04T09:30:18;14.70;80.80
69189;DHT22;56302;52.322;5.926;2022-10-04T09:33:01;14.70;80.50
69189;DHT22;56302;52.322;5.926;2022-10-04T09:41:34;14.80;78.70
69189;DHT22;56302;52.322;5.926;2022-10-04T09:47:25;14.90;79.00
69189;DHT22;56302;52.322;5.926;2022-10-04T09:52:57;15.00;77.70
69189;DHT22;56302;52.322;5.926;2022-10-04T09:58:21;15.10;77.60
69189;DHT22;56302;52.322;5.926;2022-10-04T10:06:35;15.30;77.30
69189;DHT22;56302;52.322;5.926;2022-10-04T10:11:52;15.40;75.20
69189;DHT22;56302;52.322;5.926;2022-10-04T10:34:44;16.30;73.10
69189;DHT22;56302;52.322;5.926;2022-10-04T10:40:02;16.40;71.00
69189;DHT22;56302;52.322;5.926;2022-10-04T10:42:37;16.40;71.80
69189;DHT22;56302;52.322;5.926;2022-10-04T10:48:11;16.70;70.50
69189;DHT22;56302;52.322;5.926;2022-10-04T10:51:00;16.80;70.10
69189;DHT22;56302;52.322;5.926;2022-10-04T10:59:47;17.40;69.10
69189;DHT22;56302;52.322;5.926;2022-10-04T11:02:40;17.30;69.20
69189;DHT22;56302;52.322;5.926;2022-10-04T11:05:32;17.30;66.00
69189;DHT22;56302;52.322;5.926;2022-10-04T11:08:30;17.40;68.90
69189;DHT22;56302;52.322;5.926;2022-10-04T11:22:54;17.60;63.90
69189;DHT22;56302;52.322;5.926;2022-10-04T11:36:50;18.10;65.20
69189;DHT22;56302;52.322;5.926;2022-10-04T11:39:32;18.10;63.70
69189;DHT22;56302;52.322;5.926;2022-10-04T11:47:44;18.00;62.90
69189;DHT22;56302;52.322;5.926;2022-10-04T11:50:22;18.00;63.00
69189;DHT22;56302;52.322;5.926;2022-10-04T11:55:27;18.10;62.60
69189;DHT22;56302;52.322;5.926;2022-10-04T11:58:18;18.00;60.90
69189;DHT22;56302;52.322;5.926;2022-10-04T12:15:04;17.30;66.30
69189;DHT22;56302;52.322;5.926;2022-10-04T12:32:09;17.20;64.20
69189;DHT22;56302;52.322;5.926;2022-10-04T12:35:00;17.10;63.80
69189;DHT22;56302;52.322;5.926;2022-10-04T12:37:34;17.20;64.60
69189;DHT22;56302;52.322;5.926;2022-10-04T12:40:16;17.30;64.60
69189;DHT22;56302;52.322;5.926;2022-10-04T12:46:06;17.40;66.00
69189;DHT22;56302;52.322;5.926;2022-10-04T12:48:40;17.40;63.80
69189;DHT22;56302;52.322;5.926;2022-10-04T12:57:28;17.60;65.70
69189;DHT22;56302;52.322;5.926;2022-10-04T13:00:15;17.70;65.60
69189;DHT22;56302;52.322;5.926;2022-10-04T13:08:19;17.30;63.30
69189;DHT22;56302;52.322;5.926;2022-10-04T13:22:09;17.20;62.70
69189;DHT22;56302;52.322;5.926;2022-10-04T13:27:51;17.10;63.60
69189;DHT22;56302;52.322;5.926;2022-10-04T13:30:25;17.10;63.70
69189;DHT22;56302;52.322;5.926;2022-10-04T13:33:22;17.00;63.60
69189;DHT22;56302;52.322;5.926;2022-10-04T13:38:44;16.90;64.90
69189;DHT22;56302;52.322;5.926;2022-10-04T13:41:19;17.00;63.90
69189;DHT22;56302;52.322;5.926;2022-10-04T13:49:42;16.90;63.20
69189;DHT22;56302;52.322;5.926;2022-10-04T13:52:41;16.90;64.40
69189;DHT22;56302;52.322;5.926;2022-10-04T13:59:28;17.00;64.70
69189;DHT22;56302;52.322;5.926;2022-10-04T14:13:17;17.00;63.30
69189;DHT22;56302;52.322;5.926;2022-10-04T14:16:16;17.00;63.00
69189;DHT22;56302;52.322;5.926;2022-10-04T14:21:48;16.90;64.30
69189;DHT22;56302;52.322;5.926;2022-10-04T14:27:49;16.80;64.70
69189;DHT22;56302;52.322;5.926;2022-10-04T14:30:21;16.70;66.50
69189;DHT22;56302;52.322;5.926;2022-10-04T14:41:06;16.50;67.50
69189;DHT22;56302;52.322;5.926;2022-10-04T14:46:22;16.30;67.90
69189;DHT22;56302;52.322;5.926;2022-10-04T14:56:57;16.10;69.50
69189;DHT22;56302;52.322;5.926;2022-10-04T15:07:55;16.00;71.10
69189;DHT22;56302;52.322;5.926;2022-10-04T15:10:31;16.00;70.20
69189;DHT22;56302;52.322;5.926;2022-10-04T15:16:17;16.00;71.20
69189;DHT22;56302;52.322;5.926;2022-10-04T15:18:50;16.00;71.80
69189;DHT22;56302;52.322;5.926;2022-10-04T15:23:54;16.00;71.40
69189;DHT22;56302;52.322;5.926;2022-10-04T15:28:53;16.10;71.80
69189;DHT22;56302;52.322;5.926;2022-10-04T15:31:25;16.10;71.30
69189;DHT22;56302;52.322;5.926;2022-10-04T15:39:56;16.20;70.70
69189;DHT22;56302;52.322;5.926;2022-10-04T15:42:33;16.30;71.40
69189;DHT22;56302;52.322;5.926;2022-10-04T15:56:34;16.20;72.80
69189;DHT22;56302;52.322;5.926;2022-10-04T15:59:24;16.10;73.00
69189;DHT22;56302;52.322;5.926;2022-10-04T16:02:06;16.00;74.50
69189;DHT22;56302;52.322;5.926;2022-10-04T16:05:10;15.90;74.90
69189;DHT22;56302;52.322;5.926;2022-10-04T16:10:26;15.80;75.00
69189;DHT22;56302;52.322;5.926;2022-10-04T16:15:34;15.70;75.80
69189;DHT22;56302;52.322;5.926;2022-10-04T16:18:15;15.60;75.90
69189;DHT22;56302;52.322;5.926;2022-10-04T16:23:35;15.40;77.00
69189;DHT22;56302;52.322;5.926;2022-10-04T16:31:44;15.30;77.90
69189;DHT22;56302;52.322;5.926;2022-10-04T16:34:27;15.20;77.80
69189;DHT22;56302;52.322;5.926;2022-10-04T16:37:03;15.10;78.00
69189;DHT22;56302;52.322;5.926;2022-10-04T16:40:00;15.10;78.30
69189;DHT22;56302;52.322;5.926;2022-10-04T16:45:39;14.90;79.10
69189;DHT22;56302;52.322;5.926;2022-10-04T17:02:22;14.50;80.40
69189;DHT22;56302;52.322;5.926;2022-10-04T17:08:20;14.50;80.60
69189;DHT22;56302;52.322;5.926;2022-10-04T17:11:11;14.40;80.80
69189;DHT22;56302;52.322;5.926;2022-10-04T17:13:54;14.40;81.10
69189;DHT22;56302;52.322;5.926;2022-10-04T17:19:29;14.30;81.20
69189;DHT22;56302;52.322;5.926;2022-10-04T17:22:05;14.30;81.30
69189;DHT22;56302;52.322;5.926;2022-10-04T17:25:14;14.30;81.10
69189;DHT22;56302;52.322;5.926;2022-10-04T17:27:46;14.30;81.60
69189;DHT22;56302;52.322;5.926;2022-10-04T17:30:17;14.30;82.50
69189;DHT22;56302;52.322;5.926;2022-10-04T17:33:15;14.20;82.60
69189;DHT22;56302;52.322;5.926;2022-10-04T17:35:57;14.20;82.60
69189;DHT22;56302;52.322;5.926;2022-10-04T17:41:46;14.20;82.40
69189;DHT22;56302;52.322;5.926;2022-10-04T17:44:22;14.20;82.60
69189;DHT22;56302;52.322;5.926;2022-10-04T17:47:01;14.20;82.30
69189;DHT22;56302;52.322;5.926;2022-10-04T17:49:31;14.20;82.00
69189;DHT22;56302;52.322;5.926;2022-10-04T17:52:24;14.20;81.90
69189;DHT22;56302;52.322;5.926;2022-10-04T18:01:02;14.20;82.10
69189;DHT22;56302;52.322;5.926;2022-10-04T18:03:36;14.20;82.40
69189;DHT22;56302;52.322;5.926;2022-10-04T18:08:54;14.20;82.20
69189;DHT22;56302;52.322;5.926;2022-10-04T18:11:29;14.20;82.20
69189;DHT22;56302;52.322;5.926;2022-10-04T18:17:02;14.20;81.90
69189;DHT22;56302;52.322;5.926;2022-10-04T18:20:00;14.20;82.20
69189;DHT22;56302;52.322;5.926;2022-10-04T18:22:44;14.20;82.30
69189;DHT22;56302;52.322;5.926;2022-10-04T18:25:17;14.20;82.10
69189;DHT22;56302;52.322;5.926;2022-10-04T18:28:01;14.20;82.50
69189;DHT22;56302;52.322;5.926;2022-10-04T18:30:53;14.20;82.40
69189;DHT22;56302;52.322;5.926;2022-10-04T18:33:24;14.20;82.30
69189;DHT22;56302;52.322;5.926;2022-10-04T18:35:59;14.20;82.20
69189;DHT22;56302;52.322;5.926;2022-10-04T18:38:30;14.20;82.30
69189;DHT22;56302;52.322;5.926;2022-10-04T18:41:20;14.20;82.20
69189;DHT22;56302;52.322;5.926;2022-10-04T18:46:22;14.20;82.60
69189;DHT22;56302;52.322;5.926;2022-10-04T18:48:58;14.20;82.40
69189;DHT22;56302;52.322;5.926;2022-10-04T18:51:35;14.20;82.40
69189;DHT22;56302;52.322;5.926;2022-10-04T18:54:09;14.20;82.70
69189;DHT22;56302;52.322;5.926;2022-10-04T19:02:45;14.10;83.50
69189;DHT22;56302;52.322;5.926;2022-10-04T19:05:18;14.20;83.20
69189;DHT22;56302;52.322;5.926;2022-10-04T19:11:03;14.20;83.70
69189;DHT22;56302;52.322;5.926;2022-10-04T19:13:47;14.20;83.70
69189;DHT22;56302;52.322;5.926;2022-10-04T19:16:23;14.10;83.80
69189;DHT22;56302;52.322;5.926;2022-10-04T19:26:43;14.20;83.70
69189;DHT22;56302;52.322;5.926;2022-10-04T19:29:53;14.20;84.00
69189;DHT22;56302;52.322;5.926;2022-10-04T19:46:33;14.30;83.00
69189;DHT22;56302;52.322;5.926;2022-10-04T19:49:00;14.40;82.80
69189;DHT22;56302;52.322;5.926;2022-10-04T19:51:40;14.40;82.70
69189;DHT22;56302;52.322;5.926;2022-10-04T19:54:11;14.40;82.60
69189;DHT22;56302;52.322;5.926;2022-10-04T19:56:45;14.40;82.80
69189;DHT22;56302;52.322;5.926;2022-10-04T19:59:19;14.40;83.00
69189;DHT22;56302;52.322;5.926;2022-10-04T20:01:47;14.40;82.80
69189;DHT22;56302;52.322;5.926;2022-10-04T20:04:17;14.40;83.10
69189;DHT22;56302;52.322;5.926;2022-10-04T20:07:07;14.40;82.80
69189;DHT22;56302;52.322;5.926;2022-10-04T20:12:29;14.50;83.00
69189;DHT22;56302;52.322;5.926;2022-10-04T20:17:43;14.40;82.90
69189;DHT22;56302;52.322;5.926;2022-10-04T20:20:14;14.50;82.90
69189;DHT22;56302;52.322;5.926;2022-10-04T20:30:57;14.50;83.10
69189;DHT22;56302;52.322;5.926;2022-10-04T20:33:47;14.50;82.90
69189;DHT22;56302;52.322;5.926;2022-10-04T20:39:01;14.50;83.20
69189;DHT22;56302;52.322;5.926;2022-10-04T20:43:57;14.60;83.20
69189;DHT22;56302;52.322;5.926;2022-10-04T20:46:25;14.50;83.00
69189;DHT22;56302;52.322;5.926;2022-10-04T20:48:52;14.60;82.80
69189;DHT22;56302;52.322;5.926;2022-10-04T20:51:18;14.60;82.60
69189;DHT22;56302;52.322;5.926;2022-10-04T20:53:45;14.60;82.70
69189;DHT22;56302;52.322;5.926;2022-10-04T20:56:28;14.50;83.30
69189;DHT22;56302;52.322;5.926;2022-10-04T20:58:56;14.50;83.00
69189;DHT22;56302;52.322;5.926;2022-10-04T21:04:21;14.50;82.80
69189;DHT22;56302;52.322;5.926;2022-10-04T21:07:02;14.60;83.00
69189;DHT22;56302;52.322;5.926;2022-10-04T21:09:31;14.60;83.00
69189;DHT22;56302;52.322;5.926;2022-10-04T21:11:58;14.60;82.70
69189;DHT22;56302;52.322;5.926;2022-10-04T21:14:28;14.60;82.70
69189;DHT22;56302;52.322;5.926;2022-10-04T21:16:56;14.60;83.20
69189;DHT22;56302;52.322;5.926;2022-10-04T21:27:02;14.60;83.10
69189;DHT22;56302;52.322;5.926;2022-10-04T21:29:28;14.60;83.00
69189;DHT22;56302;52.322;5.926;2022-10-04T21:31:57;14.60;83.10
69189;DHT22;56302;52.322;5.926;2022-10-04T21:34:23;14.60;82.90
69189;DHT22;56302;52.322;5.926;2022-10-04T21:36:49;14.60;82.80
69189;DHT22;56302;52.322;5.926;2022-10-04T21:39:14;14.60;82.70
69189;DHT22;56302;52.322;5.926;2022-10-04T21:41:40;14.70;82.50
69189;DHT22;56302;52.322;5.926;2022-10-04T21:44:05;14.60;82.70
69189;DHT22;56302;52.322;5.926;2022-10-04T21:46:32;14.60;82.80
69189;DHT22;56302;52.322;5.926;2022-10-04T21:48:58;14.60;83.10
69189;DHT22;56302;52.322;5.926;2022-10-04T21:51:23;14.60;83.80
69189;DHT22;56302;52.322;5.926;2022-10-04T21:53:49;14.60;83.30
69189;DHT22;56302;52.322;5.926;2022-10-04T21:56:14;14.60;83.60
69189;DHT22;56302;52.322;5.926;2022-10-04T21:58:40;14.60;83.30
69189;DHT22;56302;52.322;5.926;2022-10-04T22:01:05;14.60;83.70
69189;DHT22;56302;52.322;5.926;2022-10-04T22:03:32;14.60;83.30
69189;DHT22;56302;52.322;5.926;2022-10-04T22:05:57;14.60;83.10
69189;DHT22;56302;52.322;5.926;2022-10-04T22:08:23;14.60;83.10
69189;DHT22;56302;52.322;5.926;2022-10-04T22:10:49;14.70;83.10
69189;DHT22;56302;52.322;5.926;2022-10-04T22:13:14;14.70;83.10
69189;DHT22;56302;52.322;5.926;2022-10-04T22:15:40;14.60;83.10
69189;DHT22;56302;52.322;5.926;2022-10-04T22:18:06;14.70;83.20
69189;DHT22;56302;52.322;5.926;2022-10-04T22:20:32;14.70;83.00
69189;DHT22;56302;52.322;5.926;2022-10-04T22:22:58;14.70;82.90
69189;DHT22;56302;52.322;5.926;2022-10-04T22:25:25;14.70;82.80
69189;DHT22;56302;52.322;5.926;2022-10-04T22:27:51;14.70;82.90
69189;DHT22;56302;52.322;5.926;2022-10-04T22:30:27;14.80;82.60
69189;DHT22;56302;52.322;5.926;2022-10-04T22:32:54;14.80;82.80
69189;DHT22;56302;52.322;5.926;2022-10-04T22:35:21;14.70;82.70
69189;DHT22;56302;52.322;5.926;2022-10-04T22:37:47;14.70;82.60
69189;DHT22;56302;52.322;5.926;2022-10-04T22:42:40;14.80;82.50
69189;DHT22;56302;52.322;5.926;2022-10-04T22:45:17;14.80;82.30
69189;DHT22;56302;52.322;5.926;2022-10-04T22:47:43;14.80;82.00
69189;DHT22;56302;52.322;5.926;2022-10-04T22:50:27;14.90;81.70
69189;DHT22;56302;52.322;5.926;2022-10-04T22:52:54;14.80;82.00
69189;DHT22;56302;52.322;5.926;2022-10-04T22:55:19;14.80;82.10
69189;DHT22;56302;52.322;5.926;2022-10-04T22:57:45;14.80;82.50
69189;DHT22;56302;52.322;5.926;2022-10-04T23:00:11;14.80;82.60
69189;DHT22;56302;52.322;5.926;2022-10-04T23:02:37;14.70;83.10
69189;DHT22;56302;52.322;5.926;2022-10-04T23:05:13;14.70;83.00
69189;DHT22;56302;52.322;5.926;2022-10-04T23:07:40;14.70;83.00
69189;DHT22;56302;52.322;5.926;2022-10-04T23:10:06;14.70;83.00
69189;DHT22;56302;52.322;5.926;2022-10-04T23:12:32;14.70;83.30
69189;DHT22;56302;52.322;5.926;2022-10-04T23:14:58;14.70;83.40
69189;DHT22;56302;52.322;5.926;2022-10-04T23:17:28;14.70;83.30
69189;DHT22;56302;52.322;5.926;2022-10-04T23:19:57;14.70;82.90
69189;DHT22;56302;52.322;5.926;2022-10-04T23:22:29;14.70;82.90
69189;DHT22;56302;52.322;5.926;2022-10-04T23:24:56;14.70;83.10
69189;DHT22;56302;52.322;5.926;2022-10-04T23:27:21;14.70;83.10
69189;DHT22;56302;52.322;5.926;2022-10-04T23:29:53;14.70;83.30
69189;DHT22;56302;52.322;5.926;2022-10-04T23:32:20;14.70;83.00
69189;DHT22;56302;52.322;5.926;2022-10-04T23:34:48;14.70;83.10
69189;DHT22;56302;52.322;5.926;2022-10-04T23:37:18;14.70;83.50
69189;DHT22;56302;52.322;5.926;2022-10-04T23:39:45;14.60;83.80
69189;DHT22;56302;52.322;5.926;2022-10-04T23:42:23;14.60;83.60
69189;DHT22;56302;52.322;5.926;2022-10-04T23:44:54;14.60;83.80
69189;DHT22;56302;52.322;5.926;2022-10-04T23:47:21;14.60;83.60
69189;DHT22;56302;52.322;5.926;2022-10-04T23:49:50;14.70;83.70
69189;DHT22;56302;52.322;5.926;2022-10-04T23:52:36;14.60;83.80
69189;DHT22;56302;52.322;5.926;2022-10-04T23:55:20;14.70;83.80
69189;DHT22;56302;52.322;5.926;2022-10-04T23:57:47;14.70;83.70
